sensor_id;sensor_type;location;lat;lon;timestamp;P1;durP1;ratioP1;P2;durP2;ratioP2
79464;SDS011;68932;47.410;8.232;2023-05-20T00:01:33;8.10;;;5.40;;
79464;SDS011;68932;47.410;8.232;2023-05-20T00:04:01;8.40;;;6.10;;
79464;SDS011;68932;47.410;8.232;2023-05-20T00:06:30;8.00;;;5.70;;
79464;SDS011;68932;47.410;8.232;2023-05-20T00:08:58;6.80;;;5.70;;
79464;SDS011;68932;47.410;8.232;2023-05-20T00:11:26;8.80;;;6.10;;
79464;SDS011;68932;47.410;8.232;2023-05-20T00:13:55;8.70;;;6.90;;
79464;SDS011;68932;47.410;8.232;2023-05-20T00:16:23;10.00;;;6.80;;
79464;SDS011;68932;47.410;8.232;2023-05-20T00:18:51;8.40;;;6.80;;
79464;SDS011;68932;47.410;8.232;2023-05-20T00:21:19;7.30;;;6.20;;
79464;SDS011;68932;47.410;8.232;2023-05-20T00:23:48;9.70;;;6.20;;
79464;SDS011;68932;47.410;8.232;2023-05-20T00:26:17;8.70;;;6.50;;
79464;SDS011;68932;47.410;8.232;2023-05-20T00:28:45;10.90;;;7.00;;
79464;SDS011;68932;47.410;8.232;2023-05-20T00:31:14;8.60;;;7.30;;
79464;SDS011;68932;47.410;8.232;2023-05-20T00:33:42;7.60;;;6.10;;
79464;SDS011;68932;47.410;8.232;2023-05-20T00:36:10;10.10;;;6.70;;
79464;SDS011;68932;47.410;8.232;2023-05-20T00:38:38;9.80;;;6.40;;
79464;SDS011;68932;47.410;8.232;2023-05-20T00:41:07;7.20;;;6.20;;
79464;SDS011;68932;47.410;8.232;2023-05-20T00:43:35;9.20;;;6.30;;
79464;SDS011;68932;47.410;8.232;2023-05-20T00:46:03;8.60;;;6.10;;
79464;SDS011;68932;47.410;8.232;2023-05-20T00:48:34;10.20;;;6.50;;
79464;SDS011;68932;47.410;8.232;2023-05-20T00:51:07;10.80;;;6.00;;
79464;SDS011;68932;47.410;8.232;2023-05-20T00:53:37;10.30;;;6.90;;
79464;SDS011;68932;47.410;8.232;2023-05-20T00:56:06;8.20;;;6.70;;
79464;SDS011;68932;47.410;8.232;2023-05-20T00:58:35;7.70;;;6.20;;
79464;SDS011;68932;47.410;8.232;2023-05-20T01:01:05;7.80;;;6.10;;
79464;SDS011;68932;47.410;8.232;2023-05-20T01:03:33;7.50;;;5.70;;
79464;SDS011;68932;47.410;8.232;2023-05-20T01:06:02;10.30;;;6.80;;
79464;SDS011;68932;47.410;8.232;2023-05-20T01:08:30;8.60;;;6.20;;
79464;SDS011;68932;47.410;8.232;2023-05-20T01:11:02;7.80;;;6.20;;
79464;SDS011;68932;47.410;8.232;2023-05-20T01:13:34;8.70;;;5.90;;
79464;SDS011;68932;47.410;8.232;2023-05-20T01:16:08;9.00;;;5.70;;
79464;SDS011;68932;47.410;8.232;2023-05-20T01:18:38;8.30;;;5.80;;
79464;SDS011;68932;47.410;8.232;2023-05-20T01:21:08;7.90;;;6.10;;
79464;SDS011;68932;47.410;8.232;2023-05-20T01:23:39;9.50;;;6.90;;
79464;SDS011;68932;47.410;8.232;2023-05-20T01:26:08;9.10;;;6.30;;
79464;SDS011;68932;47.410;8.232;2023-05-20T01:28:36;11.10;;;6.20;;
79464;SDS011;68932;47.410;8.232;2023-05-20T01:31:05;7.50;;;6.40;;
79464;SDS011;68932;47.410;8.232;2023-05-20T01:33:40;10.00;;;6.40;;
79464;SDS011;68932;47.410;8.232;2023-05-20T01:36:10;7.60;;;6.10;;
79464;SDS011;68932;47.410;8.232;2023-05-20T01:38:39;8.60;;;6.30;;
79464;SDS011;68932;47.410;8.232;2023-05-20T01:41:08;11.10;;;6.40;;
79464;SDS011;68932;47.410;8.232;2023-05-20T01:43:38;9.20;;;6.10;;
79464;SDS011;68932;47.410;8.232;2023-05-20T01:46:07;7.70;;;5.40;;
79464;SDS011;68932;47.410;8.232;2023-05-20T01:48:35;7.80;;;5.30;;
79464;SDS011;68932;47.410;8.232;2023-05-20T01:51:04;8.40;;;6.20;;
79464;SDS011;68932;47.410;8.232;2023-05-20T01:53:32;7.40;;;6.00;;
79464;SDS011;68932;47.410;8.232;2023-05-20T01:56:00;9.20;;;6.30;;
79464;SDS011;68932;47.410;8.232;2023-05-20T01:58:30;8.10;;;6.60;;
79464;SDS011;68932;47.410;8.232;2023-05-20T02:00:59;8.60;;;5.80;;
79464;SDS011;68932;47.410;8.232;2023-05-20T02:03:27;8.20;;;6.00;;
79464;SDS011;68932;47.410;8.232;2023-05-20T02:05:55;7.10;;;5.60;;
79464;SDS011;68932;47.410;8.232;2023-05-20T02:08:23;9.30;;;5.60;;
79464;SDS011;68932;47.410;8.232;2023-05-20T02:10:52;7.40;;;5.40;;
79464;SDS011;68932;47.410;8.232;2023-05-20T02:13:20;8.10;;;6.00;;
79464;SDS011;68932;47.410;8.232;2023-05-20T02:15:48;7.20;;;5.70;;
79464;SDS011;68932;47.410;8.232;2023-05-20T02:18:17;7.60;;;5.90;;
79464;SDS011;68932;47.410;8.232;2023-05-20T02:20:46;9.40;;;5.70;;
79464;SDS011;68932;47.410;8.232;2023-05-20T02:23:14;6.90;;;5.70;;
79464;SDS011;68932;47.410;8.232;2023-05-20T02:25:42;8.70;;;5.90;;
79464;SDS011;68932;47.410;8.232;2023-05-20T02:28:10;8.90;;;5.80;;
79464;SDS011;68932;47.410;8.232;2023-05-20T02:30:39;9.50;;;5.80;;
79464;SDS011;68932;47.410;8.232;2023-05-20T02:33:07;6.50;;;5.80;;
79464;SDS011;68932;47.410;8.232;2023-05-20T02:35:35;10.00;;;5.90;;
79464;SDS011;68932;47.410;8.232;2023-05-20T02:38:03;7.60;;;6.30;;
79464;SDS011;68932;47.410;8.232;2023-05-20T02:40:31;9.10;;;5.90;;
79464;SDS011;68932;47.410;8.232;2023-05-20T02:43:00;8.20;;;6.30;;
79464;SDS011;68932;47.410;8.232;2023-05-20T02:45:29;7.10;;;5.60;;
79464;SDS011;68932;47.410;8.232;2023-05-20T02:47:57;8.40;;;5.60;;
79464;SDS011;68932;47.410;8.232;2023-05-20T02:50:25;9.20;;;6.50;;
79464;SDS011;68932;47.410;8.232;2023-05-20T02:52:54;7.30;;;5.60;;
79464;SDS011;68932;47.410;8.232;2023-05-20T02:55:22;8.70;;;5.60;;
79464;SDS011;68932;47.410;8.232;2023-05-20T02:57:50;8.30;;;5.70;;
79464;SDS011;68932;47.410;8.232;2023-05-20T03:00:18;10.10;;;6.00;;
79464;SDS011;68932;47.410;8.232;2023-05-20T03:02:46;7.70;;;5.50;;
79464;SDS011;68932;47.410;8.232;2023-05-20T03:05:15;9.10;;;6.20;;
79464;SDS011;68932;47.410;8.232;2023-05-20T03:07:43;7.90;;;5.90;;
79464;SDS011;68932;47.410;8.232;2023-05-20T03:10:12;7.40;;;5.90;;
79464;SDS011;68932;47.410;8.232;2023-05-20T03:12:40;7.00;;;5.60;;
79464;SDS011;68932;47.410;8.232;2023-05-20T03:15:09;9.30;;;6.50;;
79464;SDS011;68932;47.410;8.232;2023-05-20T03:17:38;12.00;;;6.70;;
79464;SDS011;68932;47.410;8.232;2023-05-20T03:20:07;7.90;;;5.40;;
79464;SDS011;68932;47.410;8.232;2023-05-20T03:22:36;7.10;;;5.50;;
79464;SDS011;68932;47.410;8.232;2023-05-20T03:25:06;6.70;;;5.40;;
79464;SDS011;68932;47.410;8.232;2023-05-20T03:27:35;7.50;;;5.80;;
79464;SDS011;68932;47.410;8.232;2023-05-20T03:30:03;7.50;;;5.40;;
79464;SDS011;68932;47.410;8.232;2023-05-20T03:32:33;7.40;;;5.90;;
79464;SDS011;68932;47.410;8.232;2023-05-20T03:35:01;9.40;;;6.00;;
79464;SDS011;68932;47.410;8.232;2023-05-20T03:37:30;8.00;;;5.90;;
79464;SDS011;68932;47.410;8.232;2023-05-20T03:39:59;8.50;;;5.80;;
79464;SDS011;68932;47.410;8.232;2023-05-20T03:42:27;10.30;;;6.30;;
79464;SDS011;68932;47.410;8.232;2023-05-20T03:44:55;9.80;;;5.50;;
79464;SDS011;68932;47.410;8.232;2023-05-20T03:47:24;8.50;;;5.80;;
79464;SDS011;68932;47.410;8.232;2023-05-20T03:49:52;9.30;;;6.30;;
79464;SDS011;68932;47.410;8.232;2023-05-20T03:52:20;7.50;;;4.90;;
79464;SDS011;68932;47.410;8.232;2023-05-20T03:54:49;6.30;;;5.20;;
79464;SDS011;68932;47.410;8.232;2023-05-20T03:57:17;9.30;;;6.10;;
79464;SDS011;68932;47.410;8.232;2023-05-20T03:59:45;7.80;;;5.70;;
79464;SDS011;68932;47.410;8.232;2023-05-20T04:02:14;9.50;;;5.60;;
79464;SDS011;68932;47.410;8.232;2023-05-20T04:04:42;7.30;;;6.00;;
79464;SDS011;68932;47.410;8.232;2023-05-20T04:07:11;7.10;;;6.00;;
79464;SDS011;68932;47.410;8.232;2023-05-20T04:09:39;9.30;;;5.50;;
79464;SDS011;68932;47.410;8.232;2023-05-20T04:12:07;6.40;;;5.50;;
79464;SDS011;68932;47.410;8.232;2023-05-20T04:14:36;7.40;;;5.70;;
79464;SDS011;68932;47.410;8.232;2023-05-20T04:17:04;8.90;;;5.60;;
79464;SDS011;68932;47.410;8.232;2023-05-20T04:19:33;9.20;;;5.60;;
79464;SDS011;68932;47.410;8.232;2023-05-20T04:22:01;8.00;;;6.30;;
79464;SDS011;68932;47.410;8.232;2023-05-20T04:24:29;7.70;;;6.20;;
79464;SDS011;68932;47.410;8.232;2023-05-20T04:26:57;9.10;;;5.60;;
79464;SDS011;68932;47.410;8.232;2023-05-20T04:29:26;6.70;;;5.40;;
79464;SDS011;68932;47.410;8.232;2023-05-20T04:31:54;8.30;;;5.30;;
79464;SDS011;68932;47.410;8.232;2023-05-20T04:34:22;7.90;;;5.60;;
79464;SDS011;68932;47.410;8.232;2023-05-20T04:36:51;6.80;;;4.80;;
79464;SDS011;68932;47.410;8.232;2023-05-20T04:39:19;6.80;;;5.60;;
79464;SDS011;68932;47.410;8.232;2023-05-20T04:41:47;8.10;;;6.30;;
79464;SDS011;68932;47.410;8.232;2023-05-20T04:44:15;8.30;;;6.00;;
79464;SDS011;68932;47.410;8.232;2023-05-20T04:46:44;8.90;;;6.10;;
79464;SDS011;68932;47.410;8.232;2023-05-20T04:49:12;10.80;;;6.00;;
79464;SDS011;68932;47.410;8.232;2023-05-20T04:51:40;9.50;;;6.20;;
79464;SDS011;68932;47.410;8.232;2023-05-20T04:54:08;9.40;;;5.80;;
79464;SDS011;68932;47.410;8.232;2023-05-20T04:56:37;8.60;;;5.50;;
79464;SDS011;68932;47.410;8.232;2023-05-20T04:59:05;12.60;;;6.00;;
79464;SDS011;68932;47.410;8.232;2023-05-20T05:01:34;9.60;;;7.00;;
79464;SDS011;68932;47.410;8.232;2023-05-20T05:04:02;8.70;;;5.90;;
79464;SDS011;68932;47.410;8.232;2023-05-20T05:06:30;10.20;;;6.10;;
79464;SDS011;68932;47.410;8.232;2023-05-20T05:08:59;8.50;;;7.00;;
79464;SDS011;68932;47.410;8.232;2023-05-20T05:11:27;7.60;;;5.60;;
79464;SDS011;68932;47.410;8.232;2023-05-20T05:13:55;10.50;;;6.80;;
79464;SDS011;68932;47.410;8.232;2023-05-20T05:16:24;8.30;;;6.20;;
79464;SDS011;68932;47.410;8.232;2023-05-20T05:21:34;8.60;;;5.80;;
79464;SDS011;68932;47.410;8.232;2023-05-20T05:24:02;9.70;;;5.80;;
79464;SDS011;68932;47.410;8.232;2023-05-20T05:26:31;7.80;;;5.80;;
79464;SDS011;68932;47.410;8.232;2023-05-20T05:28:59;9.80;;;6.10;;
79464;SDS011;68932;47.410;8.232;2023-05-20T05:31:27;7.50;;;5.50;;
79464;SDS011;68932;47.410;8.232;2023-05-20T05:33:56;7.60;;;5.90;;
79464;SDS011;68932;47.410;8.232;2023-05-20T05:36:24;6.60;;;5.20;;
79464;SDS011;68932;47.410;8.232;2023-05-20T05:38:52;6.40;;;5.40;;
79464;SDS011;68932;47.410;8.232;2023-05-20T05:41:21;9.50;;;5.70;;
79464;SDS011;68932;47.410;8.232;2023-05-20T05:43:49;6.90;;;6.10;;
79464;SDS011;68932;47.410;8.232;2023-05-20T05:46:17;8.90;;;5.20;;
79464;SDS011;68932;47.410;8.232;2023-05-20T05:48:46;10.70;;;5.60;;
79464;SDS011;68932;47.410;8.232;2023-05-20T05:51:14;6.90;;;5.10;;
79464;SDS011;68932;47.410;8.232;2023-05-20T05:53:43;7.40;;;5.20;;
79464;SDS011;68932;47.410;8.232;2023-05-20T05:56:11;7.00;;;6.00;;
79464;SDS011;68932;47.410;8.232;2023-05-20T05:58:39;6.80;;;5.10;;
79464;SDS011;68932;47.410;8.232;2023-05-20T06:01:08;7.70;;;5.20;;
79464;SDS011;68932;47.410;8.232;2023-05-20T06:03:36;5.60;;;4.70;;
79464;SDS011;68932;47.410;8.232;2023-05-20T06:06:05;6.10;;;5.10;;
79464;SDS011;68932;47.410;8.232;2023-05-20T06:08:33;7.60;;;4.50;;
79464;SDS011;68932;47.410;8.232;2023-05-20T06:11:01;8.60;;;5.40;;
79464;SDS011;68932;47.410;8.232;2023-05-20T06:13:29;5.90;;;5.00;;
79464;SDS011;68932;47.410;8.232;2023-05-20T06:15:58;6.60;;;4.80;;
79464;SDS011;68932;47.410;8.232;2023-05-20T06:18:26;6.80;;;5.10;;
79464;SDS011;68932;47.410;8.232;2023-05-20T06:20:55;7.90;;;5.00;;
79464;SDS011;68932;47.410;8.232;2023-05-20T06:23:24;7.50;;;5.50;;
79464;SDS011;68932;47.410;8.232;2023-05-20T06:25:56;7.40;;;5.10;;
79464;SDS011;68932;47.410;8.232;2023-05-20T06:28:24;8.30;;;5.40;;
79464;SDS011;68932;47.410;8.232;2023-05-20T06:30:54;8.10;;;5.70;;
79464;SDS011;68932;47.410;8.232;2023-05-20T06:33:23;10.10;;;6.00;;
79464;SDS011;68932;47.410;8.232;2023-05-20T06:35:52;7.80;;;5.60;;
79464;SDS011;68932;47.410;8.232;2023-05-20T06:38:20;8.70;;;5.50;;
79464;SDS011;68932;47.410;8.232;2023-05-20T06:40:49;8.20;;;6.10;;
79464;SDS011;68932;47.410;8.232;2023-05-20T06:43:17;8.40;;;5.30;;
79464;SDS011;68932;47.410;8.232;2023-05-20T06:45:46;8.60;;;6.20;;
79464;SDS011;68932;47.410;8.232;2023-05-20T06:48:14;8.50;;;6.20;;
79464;SDS011;68932;47.410;8.232;2023-05-20T06:50:42;7.00;;;5.70;;
79464;SDS011;68932;47.410;8.232;2023-05-20T06:53:11;9.50;;;5.90;;
79464;SDS011;68932;47.410;8.232;2023-05-20T06:55:40;7.70;;;5.40;;
79464;SDS011;68932;47.410;8.232;2023-05-20T06:58:08;6.90;;;5.80;;
79464;SDS011;68932;47.410;8.232;2023-05-20T07:00:36;9.40;;;5.90;;
79464;SDS011;68932;47.410;8.232;2023-05-20T07:03:05;7.30;;;5.60;;
79464;SDS011;68932;47.410;8.232;2023-05-20T07:05:33;7.90;;;5.80;;
79464;SDS011;68932;47.410;8.232;2023-05-20T07:08:02;10.30;;;6.20;;
79464;SDS011;68932;47.410;8.232;2023-05-20T07:10:31;9.20;;;5.50;;
79464;SDS011;68932;47.410;8.232;2023-05-20T07:12:59;7.00;;;5.50;;
79464;SDS011;68932;47.410;8.232;2023-05-20T07:15:27;7.10;;;5.70;;
79464;SDS011;68932;47.410;8.232;2023-05-20T07:17:56;8.00;;;6.60;;
79464;SDS011;68932;47.410;8.232;2023-05-20T07:20:24;10.40;;;7.50;;
79464;SDS011;68932;47.410;8.232;2023-05-20T07:22:52;7.50;;;6.10;;
79464;SDS011;68932;47.410;8.232;2023-05-20T07:25:20;9.40;;;6.60;;
79464;SDS011;68932;47.410;8.232;2023-05-20T07:27:49;9.00;;;5.70;;
79464;SDS011;68932;47.410;8.232;2023-05-20T07:30:17;8.50;;;6.30;;
79464;SDS011;68932;47.410;8.232;2023-05-20T07:32:45;8.30;;;5.70;;
79464;SDS011;68932;47.410;8.232;2023-05-20T07:35:13;7.60;;;6.30;;
79464;SDS011;68932;47.410;8.232;2023-05-20T07:37:42;8.50;;;6.70;;
79464;SDS011;68932;47.410;8.232;2023-05-20T07:40:11;9.30;;;6.80;;
79464;SDS011;68932;47.410;8.232;2023-05-20T07:42:39;9.20;;;7.00;;
79464;SDS011;68932;47.410;8.232;2023-05-20T07:45:09;8.60;;;7.00;;
79464;SDS011;68932;47.410;8.232;2023-05-20T07:47:37;9.70;;;6.60;;
79464;SDS011;68932;47.410;8.232;2023-05-20T07:50:07;8.90;;;7.40;;
79464;SDS011;68932;47.410;8.232;2023-05-20T07:52:36;9.60;;;7.40;;
79464;SDS011;68932;47.410;8.232;2023-05-20T07:55:05;8.90;;;6.90;;
79464;SDS011;68932;47.410;8.232;2023-05-20T07:57:34;9.20;;;6.20;;
79464;SDS011;68932;47.410;8.232;2023-05-20T08:00:02;9.60;;;6.40;;
79464;SDS011;68932;47.410;8.232;2023-05-20T08:02:32;10.30;;;7.30;;
79464;SDS011;68932;47.410;8.232;2023-05-20T08:05:00;8.80;;;7.60;;
79464;SDS011;68932;47.410;8.232;2023-05-20T08:07:29;10.60;;;7.30;;
79464;SDS011;68932;47.410;8.232;2023-05-20T08:09:57;10.30;;;7.10;;
79464;SDS011;68932;47.410;8.232;2023-05-20T08:12:26;10.40;;;6.90;;
79464;SDS011;68932;47.410;8.232;2023-05-20T08:14:54;11.80;;;7.70;;
79464;SDS011;68932;47.410;8.232;2023-05-20T08:17:22;11.10;;;7.70;;
79464;SDS011;68932;47.410;8.232;2023-05-20T08:19:51;8.90;;;6.40;;
79464;SDS011;68932;47.410;8.232;2023-05-20T08:22:19;9.90;;;6.80;;
79464;SDS011;68932;47.410;8.232;2023-05-20T08:24:48;8.60;;;7.80;;
79464;SDS011;68932;47.410;8.232;2023-05-20T08:27:16;8.90;;;6.90;;
79464;SDS011;68932;47.410;8.232;2023-05-20T08:29:44;9.00;;;6.80;;
79464;SDS011;68932;47.410;8.232;2023-05-20T08:32:12;10.20;;;7.20;;
79464;SDS011;68932;47.410;8.232;2023-05-20T08:34:41;10.10;;;7.50;;
79464;SDS011;68932;47.410;8.232;2023-05-20T08:37:09;10.00;;;7.40;;
79464;SDS011;68932;47.410;8.232;2023-05-20T08:39:37;10.30;;;7.20;;
79464;SDS011;68932;47.410;8.232;2023-05-20T08:42:07;8.50;;;6.80;;
79464;SDS011;68932;47.410;8.232;2023-05-20T08:44:35;9.30;;;6.60;;
79464;SDS011;68932;47.410;8.232;2023-05-20T08:47:04;9.90;;;7.10;;
79464;SDS011;68932;47.410;8.232;2023-05-20T08:49:33;8.40;;;7.10;;
79464;SDS011;68932;47.410;8.232;2023-05-20T08:52:15;10.00;;;7.70;;
79464;SDS011;68932;47.410;8.232;2023-05-20T08:54:46;9.20;;;6.60;;
79464;SDS011;68932;47.410;8.232;2023-05-20T08:57:15;8.00;;;6.40;;
79464;SDS011;68932;47.410;8.232;2023-05-20T08:59:44;8.90;;;6.70;;
79464;SDS011;68932;47.410;8.232;2023-05-20T09:02:13;9.20;;;6.60;;
79464;SDS011;68932;47.410;8.232;2023-05-20T09:04:41;11.30;;;7.90;;
79464;SDS011;68932;47.410;8.232;2023-05-20T09:07:10;8.80;;;6.80;;
79464;SDS011;68932;47.410;8.232;2023-05-20T09:09:38;11.30;;;7.00;;
79464;SDS011;68932;47.410;8.232;2023-05-20T09:12:07;9.50;;;7.30;;
79464;SDS011;68932;47.410;8.232;2023-05-20T09:14:35;9.80;;;7.10;;
79464;SDS011;68932;47.410;8.232;2023-05-20T09:17:04;8.20;;;6.70;;
79464;SDS011;68932;47.410;8.232;2023-05-20T09:19:33;9.80;;;7.40;;
79464;SDS011;68932;47.410;8.232;2023-05-20T09:22:02;9.30;;;7.40;;
79464;SDS011;68932;47.410;8.232;2023-05-20T09:24:30;10.90;;;7.30;;
79464;SDS011;68932;47.410;8.232;2023-05-20T09:26:59;10.90;;;7.80;;
79464;SDS011;68932;47.410;8.232;2023-05-20T09:29:27;10.00;;;6.40;;
79464;SDS011;68932;47.410;8.232;2023-05-20T09:32:00;8.30;;;5.90;;
79464;SDS011;68932;47.410;8.232;2023-05-20T09:34:30;11.00;;;8.40;;
79464;SDS011;68932;47.410;8.232;2023-05-20T09:36:58;10.20;;;7.50;;
79464;SDS011;68932;47.410;8.232;2023-05-20T09:39:29;10.40;;;7.10;;
79464;SDS011;68932;47.410;8.232;2023-05-20T09:42:04;9.50;;;6.90;;
79464;SDS011;68932;47.410;8.232;2023-05-20T09:44:37;7.80;;;6.10;;
79464;SDS011;68932;47.410;8.232;2023-05-20T09:47:08;7.70;;;6.20;;
79464;SDS011;68932;47.410;8.232;2023-05-20T09:49:37;8.40;;;6.30;;
79464;SDS011;68932;47.410;8.232;2023-05-20T09:52:07;8.80;;;6.40;;
79464;SDS011;68932;47.410;8.232;2023-05-20T09:54:36;9.80;;;6.90;;
79464;SDS011;68932;47.410;8.232;2023-05-20T09:57:04;10.30;;;7.00;;
79464;SDS011;68932;47.410;8.232;2023-05-20T09:59:34;9.30;;;7.20;;
79464;SDS011;68932;47.410;8.232;2023-05-20T10:02:04;9.50;;;7.10;;
79464;SDS011;68932;47.410;8.232;2023-05-20T10:04:34;8.90;;;6.90;;
79464;SDS011;68932;47.410;8.232;2023-05-20T10:07:15;6.90;;;4.40;;
79464;SDS011;68932;47.410;8.232;2023-05-20T10:09:58;7.30;;;5.80;;
79464;SDS011;68932;47.410;8.232;2023-05-20T10:12:38;11.60;;;7.90;;
79464;SDS011;68932;47.410;8.232;2023-05-20T10:15:16;7.00;;;5.60;;
79464;SDS011;68932;47.410;8.232;2023-05-20T10:17:52;9.90;;;6.90;;
79464;SDS011;68932;47.410;8.232;2023-05-20T10:20:44;8.00;;;6.30;;
79464;SDS011;68932;47.410;8.232;2023-05-20T10:23:20;7.00;;;5.40;;
79464;SDS011;68932;47.410;8.232;2023-05-20T10:25:50;7.70;;;5.90;;
79464;SDS011;68932;47.410;8.232;2023-05-20T10:28:29;8.00;;;5.80;;
79464;SDS011;68932;47.410;8.232;2023-05-20T10:31:00;11.20;;;6.80;;
79464;SDS011;68932;47.410;8.232;2023-05-20T10:33:41;6.90;;;5.40;;
79464;SDS011;68932;47.410;8.232;2023-05-20T10:36:11;7.10;;;5.90;;
79464;SDS011;68932;47.410;8.232;2023-05-20T10:38:51;6.90;;;5.40;;
79464;SDS011;68932;47.410;8.232;2023-05-20T10:41:23;8.40;;;7.00;;
79464;SDS011;68932;47.410;8.232;2023-05-20T10:44:02;8.90;;;5.70;;
79464;SDS011;68932;47.410;8.232;2023-05-20T10:46:31;6.50;;;5.30;;
79464;SDS011;68932;47.410;8.232;2023-05-20T10:49:02;7.40;;;5.80;;
79464;SDS011;68932;47.410;8.232;2023-05-20T10:51:30;8.20;;;6.50;;
79464;SDS011;68932;47.410;8.232;2023-05-20T10:54:03;8.40;;;6.10;;
79464;SDS011;68932;47.410;8.232;2023-05-20T10:56:34;6.30;;;4.80;;
79464;SDS011;68932;47.410;8.232;2023-05-20T10:59:03;8.70;;;6.40;;
79464;SDS011;68932;47.410;8.232;2023-05-20T11:01:32;5.40;;;4.20;;
79464;SDS011;68932;47.410;8.232;2023-05-20T11:04:00;7.30;;;5.50;;
79464;SDS011;68932;47.410;8.232;2023-05-20T11:06:29;7.80;;;6.30;;
79464;SDS011;68932;47.410;8.232;2023-05-20T11:09:02;8.10;;;6.80;;
79464;SDS011;68932;47.410;8.232;2023-05-20T11:11:31;9.00;;;7.60;;
79464;SDS011;68932;47.410;8.232;2023-05-20T11:13:59;6.50;;;5.50;;
79464;SDS011;68932;47.410;8.232;2023-05-20T11:16:28;6.80;;;5.60;;
79464;SDS011;68932;47.410;8.232;2023-05-20T11:18:56;7.10;;;5.60;;
79464;SDS011;68932;47.410;8.232;2023-05-20T11:21:25;7.80;;;5.80;;
79464;SDS011;68932;47.410;8.232;2023-05-20T11:23:53;7.20;;;6.40;;
79464;SDS011;68932;47.410;8.232;2023-05-20T11:26:21;7.60;;;6.20;;
79464;SDS011;68932;47.410;8.232;2023-05-20T11:28:50;8.20;;;6.10;;
79464;SDS011;68932;47.410;8.232;2023-05-20T11:31:18;7.30;;;6.00;;
79464;SDS011;68932;47.410;8.232;2023-05-20T11:33:46;10.00;;;6.30;;
79464;SDS011;68932;47.410;8.232;2023-05-20T11:36:15;7.40;;;5.70;;
79464;SDS011;68932;47.410;8.232;2023-05-20T11:38:44;7.20;;;6.10;;
79464;SDS011;68932;47.410;8.232;2023-05-20T11:41:13;6.40;;;4.70;;
79464;SDS011;68932;47.410;8.232;2023-05-20T11:43:41;7.90;;;6.30;;
79464;SDS011;68932;47.410;8.232;2023-05-20T11:46:09;8.50;;;6.40;;
79464;SDS011;68932;47.410;8.232;2023-05-20T11:48:38;7.50;;;6.00;;
79464;SDS011;68932;47.410;8.232;2023-05-20T11:51:16;9.90;;;5.90;;
79464;SDS011;68932;47.410;8.232;2023-05-20T11:53:47;7.40;;;5.90;;
79464;SDS011;68932;47.410;8.232;2023-05-20T11:56:16;7.20;;;5.80;;
79464;SDS011;68932;47.410;8.232;2023-05-20T11:58:45;5.40;;;4.20;;
79464;SDS011;68932;47.410;8.232;2023-05-20T12:01:14;6.40;;;5.20;;
79464;SDS011;68932;47.410;8.232;2023-05-20T12:03:42;7.20;;;5.20;;
79464;SDS011;68932;47.410;8.232;2023-05-20T12:06:12;9.20;;;6.10;;
79464;SDS011;68932;47.410;8.232;2023-05-20T12:08:40;7.00;;;5.70;;
79464;SDS011;68932;47.410;8.232;2023-05-20T12:11:08;8.10;;;5.90;;
79464;SDS011;68932;47.410;8.232;2023-05-20T12:13:36;7.80;;;5.60;;
79464;SDS011;68932;47.410;8.232;2023-05-20T12:16:05;6.10;;;4.70;;
79464;SDS011;68932;47.410;8.232;2023-05-20T12:18:34;6.20;;;4.90;;
79464;SDS011;68932;47.410;8.232;2023-05-20T12:21:02;6.30;;;4.90;;
79464;SDS011;68932;47.410;8.232;2023-05-20T12:23:30;10.60;;;6.00;;
79464;SDS011;68932;47.410;8.232;2023-05-20T12:25:59;6.00;;;5.10;;
79464;SDS011;68932;47.410;8.232;2023-05-20T12:28:27;7.10;;;5.80;;
79464;SDS011;68932;47.410;8.232;2023-05-20T12:30:55;7.30;;;5.90;;
79464;SDS011;68932;47.410;8.232;2023-05-20T12:33:23;6.50;;;5.10;;
79464;SDS011;68932;47.410;8.232;2023-05-20T12:35:51;6.30;;;5.00;;
79464;SDS011;68932;47.410;8.232;2023-05-20T12:38:20;7.60;;;5.10;;
79464;SDS011;68932;47.410;8.232;2023-05-20T12:40:48;6.90;;;4.80;;
79464;SDS011;68932;47.410;8.232;2023-05-20T12:43:16;7.90;;;5.00;;
79464;SDS011;68932;47.410;8.232;2023-05-20T12:45:45;6.10;;;5.00;;
79464;SDS011;68932;47.410;8.232;2023-05-20T12:48:13;6.00;;;4.30;;
79464;SDS011;68932;47.410;8.232;2023-05-20T12:50:41;8.30;;;5.70;;
79464;SDS011;68932;47.410;8.232;2023-05-20T12:53:10;6.80;;;4.70;;
79464;SDS011;68932;47.410;8.232;2023-05-20T12:55:39;5.50;;;5.00;;
79464;SDS011;68932;47.410;8.232;2023-05-20T12:58:07;6.40;;;4.80;;
79464;SDS011;68932;47.410;8.232;2023-05-20T13:00:35;7.20;;;6.10;;
79464;SDS011;68932;47.410;8.232;2023-05-20T13:03:03;6.10;;;4.90;;
79464;SDS011;68932;47.410;8.232;2023-05-20T13:05:32;6.20;;;5.30;;
79464;SDS011;68932;47.410;8.232;2023-05-20T13:08:00;6.20;;;5.10;;
79464;SDS011;68932;47.410;8.232;2023-05-20T13:10:29;5.90;;;4.90;;
79464;SDS011;68932;47.410;8.232;2023-05-20T13:12:58;7.10;;;5.10;;
79464;SDS011;68932;47.410;8.232;2023-05-20T13:15:26;8.00;;;5.60;;
79464;SDS011;68932;47.410;8.232;2023-05-20T13:17:54;5.70;;;5.00;;
79464;SDS011;68932;47.410;8.232;2023-05-20T13:20:23;7.60;;;5.30;;
79464;SDS011;68932;47.410;8.232;2023-05-20T13:22:51;6.10;;;5.50;;
79464;SDS011;68932;47.410;8.232;2023-05-20T13:25:19;7.20;;;5.50;;
79464;SDS011;68932;47.410;8.232;2023-05-20T13:27:48;6.20;;;4.90;;
79464;SDS011;68932;47.410;8.232;2023-05-20T13:30:16;6.80;;;6.10;;
79464;SDS011;68932;47.410;8.232;2023-05-20T13:32:44;6.40;;;5.50;;
79464;SDS011;68932;47.410;8.232;2023-05-20T13:35:13;5.10;;;4.20;;
79464;SDS011;68932;47.410;8.232;2023-05-20T13:37:41;5.90;;;5.20;;
79464;SDS011;68932;47.410;8.232;2023-05-20T13:40:10;6.70;;;5.10;;
79464;SDS011;68932;47.410;8.232;2023-05-20T13:42:39;6.20;;;5.30;;
79464;SDS011;68932;47.410;8.232;2023-05-20T13:45:08;7.00;;;5.60;;
79464;SDS011;68932;47.410;8.232;2023-05-20T13:47:37;6.40;;;5.40;;
79464;SDS011;68932;47.410;8.232;2023-05-20T13:50:08;7.90;;;5.70;;
79464;SDS011;68932;47.410;8.232;2023-05-20T13:52:37;7.50;;;5.60;;
79464;SDS011;68932;47.410;8.232;2023-05-20T13:55:06;7.80;;;6.00;;
79464;SDS011;68932;47.410;8.232;2023-05-20T13:57:35;9.30;;;6.50;;
79464;SDS011;68932;47.410;8.232;2023-05-20T14:00:04;8.10;;;6.30;;
79464;SDS011;68932;47.410;8.232;2023-05-20T14:02:34;7.10;;;5.70;;
79464;SDS011;68932;47.410;8.232;2023-05-20T14:05:03;7.00;;;5.90;;
79464;SDS011;68932;47.410;8.232;2023-05-20T14:07:32;5.90;;;5.20;;
79464;SDS011;68932;47.410;8.232;2023-05-20T14:10:01;5.50;;;4.80;;
79464;SDS011;68932;47.410;8.232;2023-05-20T14:12:29;7.30;;;5.30;;
79464;SDS011;68932;47.410;8.232;2023-05-20T14:14:58;5.60;;;4.60;;
79464;SDS011;68932;47.410;8.232;2023-05-20T14:17:26;5.90;;;5.00;;
79464;SDS011;68932;47.410;8.232;2023-05-20T14:19:55;6.70;;;5.10;;
79464;SDS011;68932;47.410;8.232;2023-05-20T14:22:23;6.60;;;5.30;;
79464;SDS011;68932;47.410;8.232;2023-05-20T14:24:51;6.90;;;4.90;;
79464;SDS011;68932;47.410;8.232;2023-05-20T14:27:20;5.90;;;5.20;;
79464;SDS011;68932;47.410;8.232;2023-05-20T14:29:48;6.80;;;5.20;;
79464;SDS011;68932;47.410;8.232;2023-05-20T14:32:16;5.70;;;5.10;;
79464;SDS011;68932;47.410;8.232;2023-05-20T14:34:44;5.40;;;4.60;;
79464;SDS011;68932;47.410;8.232;2023-05-20T14:37:12;5.60;;;4.30;;
79464;SDS011;68932;47.410;8.232;2023-05-20T14:39:41;4.50;;;4.10;;
79464;SDS011;68932;47.410;8.232;2023-05-20T14:42:10;6.90;;;5.30;;
79464;SDS011;68932;47.410;8.232;2023-05-20T14:44:38;7.40;;;5.60;;
79464;SDS011;68932;47.410;8.232;2023-05-20T14:47:06;7.50;;;4.30;;
79464;SDS011;68932;47.410;8.232;2023-05-20T14:49:34;6.20;;;4.60;;
79464;SDS011;68932;47.410;8.232;2023-05-20T14:52:03;5.50;;;4.60;;
79464;SDS011;68932;47.410;8.232;2023-05-20T14:54:32;8.00;;;5.00;;
79464;SDS011;68932;47.410;8.232;2023-05-20T14:57:00;7.10;;;5.00;;
79464;SDS011;68932;47.410;8.232;2023-05-20T14:59:29;6.10;;;4.80;;